Aviation Digital Data Service (ADDS)

Output produced by METARs form (0420 UTC 19 February 2019)
found at http://www.aviationweather.gov/metar/data/
 
Forecast for: VTCP (PHRAE , TH)
Text: TAF VTCP 182300Z 1900/1924 20005KT 2000 BR FEW030
Forecast period: 0000 to 0100 UTC 19 February 2019
Forecast type: FROM: standard forecast or significant change
Winds: from the SSW (200 degrees) at 6 MPH (5 knots; 2.6 m/s)
Visibility: 1.24 miles (2.00 km)
Ceiling: at least 12,000 feet AGL
Clouds: few clouds at 3000 feet AGL
Weather: BR  (mist)
Text: BECMG 1901/1903 9999 NSW
Forecast period: 0100 UTC 19 February 2019 to 0000 UTC 20 February 2019
Forecast type: BECOMING: Conditions expected to become as follows by 0300 UTC 19 February 2019
Winds: from the SSW (200 degrees) at 6 MPH (5 knots; 2.6 m/s)
Visibility: 6 or more miles 10+ km)
Ceiling: at least 12,000 feet AGL
Clouds: few clouds at 3000 feet AGL
Weather: NSW  (no significant weather)